createdAt,value
2019-01-28T00:00:47.594Z,1.40
2019-01-28T00:03:17.621Z,1.40
2019-01-28T00:05:49.015Z,1.40
2019-01-28T00:08:18.841Z,1.40
2019-01-28T00:10:48.681Z,1.40
2019-01-28T00:13:18.388Z,1.40
2019-01-28T00:15:49.138Z,1.40
2019-01-28T00:18:19.047Z,1.50
2019-01-28T00:20:49.753Z,1.40
2019-01-28T00:23:20.543Z,1.50
2019-01-28T00:25:50.297Z,1.40
2019-01-28T00:28:20.075Z,1.40
2019-01-28T00:30:49.825Z,1.40
2019-01-28T00:33:20.415Z,1.40
2019-01-28T00:35:50.129Z,1.40
2019-01-28T00:38:19.794Z,1.30
2019-01-28T00:40:49.468Z,1.30
2019-01-28T00:43:20.161Z,1.30
2019-01-28T00:45:49.802Z,1.30
2019-01-28T00:48:19.567Z,1.30
2019-01-28T00:50:49.326Z,1.30
2019-01-28T00:53:19.237Z,1.30
2019-01-28T00:55:49.099Z,1.20
2019-01-28T00:58:18.846Z,1.20
2019-01-28T01:00:48.601Z,1.20
2019-01-28T01:03:18.471Z,1.10
2019-01-28T01:05:48.493Z,1.10
2019-01-28T01:08:18.262Z,1.00
2019-01-28T01:10:48.007Z,1.00
2019-01-28T01:13:18.634Z,1.00
2019-01-28T01:15:49.272Z,1.00
2019-01-28T01:18:20.028Z,1.00
2019-01-28T01:20:49.750Z,1.00
2019-01-28T01:23:20.337Z,1.00
2019-01-28T01:25:50.074Z,1.00
2019-01-28T01:28:19.745Z,1.10
2019-01-28T01:30:49.515Z,1.10
2019-01-28T01:33:19.184Z,1.10
2019-01-28T01:35:49.684Z,1.10
2019-01-28T01:38:19.618Z,1.20
2019-01-28T01:40:49.418Z,1.20
2019-01-28T01:43:19.102Z,1.30
2019-01-28T01:45:48.755Z,1.30
2019-01-28T01:48:19.444Z,1.20
2019-01-28T01:50:51.100Z,1.30
2019-01-28T01:53:20.782Z,1.30
2019-01-28T01:55:50.464Z,1.40
2019-01-28T01:58:20.166Z,1.40
2019-01-28T02:00:49.930Z,1.30
2019-01-28T02:03:19.615Z,1.30
2019-01-28T02:05:49.427Z,1.30
2019-01-28T02:08:20.046Z,1.20
2019-01-28T02:10:49.833Z,1.20
2019-01-28T02:13:19.586Z,1.20
2019-01-28T02:15:49.254Z,1.30
2019-01-28T02:18:18.973Z,1.30
2019-01-28T02:20:48.699Z,1.30
2019-01-28T02:23:18.446Z,1.30
2019-01-28T02:25:48.169Z,1.30
2019-01-28T02:28:17.927Z,1.40
2019-01-28T02:30:47.674Z,1.40
2019-01-28T02:33:17.447Z,1.40
2019-01-28T02:35:47.375Z,1.40
2019-01-28T02:38:18.114Z,1.40
2019-01-28T02:40:48.704Z,1.40
2019-01-28T02:43:18.475Z,1.30
2019-01-28T02:45:48.150Z,1.40
2019-01-28T02:48:17.925Z,1.40
2019-01-28T02:50:47.643Z,1.40
2019-01-28T02:53:17.411Z,1.40
2019-01-28T02:55:47.333Z,1.40
2019-01-28T02:58:17.074Z,1.40
2019-01-28T03:00:46.846Z,1.40
2019-01-28T03:03:17.551Z,1.40
2019-01-28T03:05:47.369Z,1.50
2019-01-28T03:08:17.076Z,1.50
2019-01-28T03:10:46.802Z,1.40
2019-01-28T03:13:17.648Z,1.40
2019-01-28T03:15:47.470Z,1.40
2019-01-28T03:18:17.441Z,1.30
2019-01-28T03:20:47.238Z,1.30
2019-01-28T03:23:18.369Z,1.30
2019-01-28T03:25:48.111Z,1.30
2019-01-28T03:28:17.790Z,1.30
2019-01-28T03:30:48.440Z,1.30
2019-01-28T03:33:18.695Z,1.30
2019-01-28T03:35:48.473Z,1.30
2019-01-28T03:38:18.243Z,1.20
2019-01-28T03:40:47.922Z,1.30
2019-01-28T03:43:17.765Z,1.30
2019-01-28T03:45:48.505Z,1.30
2019-01-28T03:48:18.272Z,1.30
2019-01-28T03:50:47.941Z,1.40
2019-01-28T03:53:17.936Z,1.30
2019-01-28T03:55:47.744Z,1.30
2019-01-28T03:58:17.639Z,1.40
2019-01-28T04:00:47.274Z,1.30
2019-01-28T04:03:17.056Z,1.30
2019-01-28T04:05:46.793Z,1.30
2019-01-28T04:08:16.577Z,1.30
2019-01-28T04:10:46.298Z,1.20
2019-01-28T04:13:16.098Z,1.20
2019-01-28T04:15:45.823Z,1.20
2019-01-28T04:18:15.764Z,1.20
2019-01-28T04:20:45.504Z,1.20
2019-01-28T04:23:15.188Z,1.20
2019-01-28T04:25:44.940Z,1.20
2019-01-28T04:28:15.482Z,1.10
2019-01-28T04:30:45.307Z,1.10
2019-01-28T04:33:14.967Z,1.10
2019-01-28T04:35:44.708Z,1.10
2019-01-28T04:38:14.540Z,1.10
2019-01-28T04:40:44.287Z,1.10
2019-01-28T04:43:13.969Z,1.20
2019-01-28T04:45:43.658Z,1.20
2019-01-28T04:48:13.337Z,1.20
2019-01-28T04:50:43.105Z,1.30
2019-01-28T04:53:12.844Z,1.30
2019-01-28T04:55:42.527Z,1.30
2019-01-28T04:58:12.280Z,1.30
2019-01-28T05:00:41.962Z,1.40
2019-01-28T05:03:11.552Z,1.40
2019-01-28T05:05:41.414Z,1.40
2019-01-28T05:08:11.085Z,1.40
2019-01-28T05:10:40.775Z,1.50
2019-01-28T05:13:10.500Z,1.40
2019-01-28T05:15:40.270Z,1.40
2019-01-28T05:18:10.923Z,1.40
2019-01-28T05:20:40.607Z,1.40
2019-01-28T05:23:10.406Z,1.30
2019-01-28T05:25:40.299Z,1.30
2019-01-28T05:28:10.071Z,1.30
2019-01-28T05:30:40.677Z,1.30
2019-01-28T05:33:10.300Z,1.30
2019-01-28T05:35:40.048Z,1.30
2019-01-28T05:38:09.720Z,1.30
2019-01-28T05:40:39.542Z,1.30
2019-01-28T05:43:09.395Z,1.30
2019-01-28T05:45:39.126Z,1.30
2019-01-28T05:48:08.785Z,1.30
2019-01-28T05:50:38.537Z,1.30
2019-01-28T05:53:08.351Z,1.20
2019-01-28T05:55:37.953Z,1.20
2019-01-28T05:58:07.703Z,1.20
2019-01-28T06:00:39.070Z,1.20
2019-01-28T06:03:08.974Z,1.20
2019-01-28T06:05:38.651Z,1.20
2019-01-28T06:08:08.446Z,1.10
2019-01-28T06:10:38.122Z,1.10
2019-01-28T06:13:07.888Z,1.10
2019-01-28T06:15:37.542Z,1.10
2019-01-28T06:18:07.330Z,1.10
2019-01-28T06:20:36.997Z,1.00
2019-01-28T06:23:06.723Z,1.00
2019-01-28T06:25:36.401Z,1.00
2019-01-28T06:28:06.246Z,0.90
2019-01-28T06:30:35.983Z,1.00
2019-01-28T06:33:05.887Z,1.00
2019-01-28T06:35:35.706Z,1.00
2019-01-28T06:38:05.537Z,1.00
2019-01-28T06:40:35.797Z,0.90
2019-01-28T06:43:05.500Z,0.90
2019-01-28T06:45:35.259Z,1.00
2019-01-28T06:48:05.406Z,1.10
2019-01-28T06:50:35.077Z,1.20
2019-01-28T06:53:04.946Z,1.20
2019-01-28T06:55:34.766Z,1.20
2019-01-28T06:58:05.334Z,1.20
2019-01-28T07:00:36.151Z,1.20
2019-01-28T07:03:06.999Z,1.20
2019-01-28T07:05:36.674Z,1.30
2019-01-28T07:08:06.715Z,1.30
2019-01-28T07:10:38.313Z,1.20
2019-01-28T07:13:07.992Z,1.20
2019-01-28T07:15:37.732Z,1.30
2019-01-28T07:18:07.425Z,1.20
2019-01-28T07:20:37.196Z,1.30
2019-01-28T07:23:06.963Z,1.20
2019-01-28T07:25:36.717Z,1.20
2019-01-28T07:28:06.463Z,1.20
2019-01-28T07:30:38.222Z,1.20
2019-01-28T07:33:07.911Z,1.30
2019-01-28T07:35:37.638Z,1.40
2019-01-28T07:38:07.371Z,1.40
2019-01-28T07:40:37.050Z,1.40
2019-01-28T07:43:06.781Z,1.50
2019-01-28T07:45:44.562Z,1.50
2019-01-28T07:48:08.893Z,1.50
2019-01-28T07:50:38.765Z,1.60
2019-01-28T07:53:08.424Z,1.60
2019-01-28T07:55:38.194Z,1.70
2019-01-28T07:58:07.994Z,1.70
2019-01-28T08:00:37.738Z,1.80
2019-01-28T08:03:07.522Z,1.80
2019-01-28T08:05:37.483Z,1.80
2019-01-28T08:08:07.223Z,1.80
2019-01-28T08:10:36.978Z,1.70
2019-01-28T08:13:06.985Z,1.70
2019-01-28T08:15:36.846Z,1.80
2019-01-28T08:18:10.937Z,1.70
2019-01-28T08:20:38.272Z,1.60
2019-01-28T08:23:07.936Z,1.60
2019-01-28T08:25:37.687Z,1.50
2019-01-28T08:28:07.422Z,1.40
2019-01-28T08:30:37.576Z,1.50
2019-01-28T08:33:07.327Z,1.50
2019-01-28T08:35:39.040Z,1.50
2019-01-28T08:38:08.814Z,1.50
2019-01-28T08:40:38.465Z,1.60
2019-01-28T08:43:08.270Z,1.70
2019-01-28T08:45:38.002Z,1.70
2019-01-28T08:48:07.851Z,1.60
2019-01-28T08:50:37.642Z,1.70
2019-01-28T08:53:07.425Z,1.70
2019-01-28T08:55:37.160Z,1.70
2019-01-28T08:58:06.980Z,1.70
2019-01-28T09:00:38.611Z,1.70
2019-01-28T09:03:08.438Z,1.70
2019-01-28T09:05:38.297Z,1.80
2019-01-28T09:08:08.501Z,1.90
2019-01-28T09:10:38.453Z,2.00
2019-01-28T09:13:08.558Z,2.00
2019-01-28T09:15:38.299Z,2.00
2019-01-28T09:18:09.318Z,2.10
2019-01-28T09:20:39.094Z,2.00
2019-01-28T09:23:09.378Z,2.10
2019-01-28T09:25:39.128Z,2.10
2019-01-28T09:28:08.790Z,2.10
2019-01-28T09:30:39.503Z,2.10
2019-01-28T09:33:09.278Z,2.00
2019-01-28T09:35:39.208Z,2.20
2019-01-28T09:38:08.936Z,2.20
2019-01-28T09:40:38.764Z,2.20
2019-01-28T09:43:08.491Z,2.30
2019-01-28T09:45:40.616Z,2.40
2019-01-28T09:48:12.210Z,2.40
2019-01-28T09:50:41.978Z,2.50
2019-01-28T09:53:13.206Z,2.40
2019-01-28T09:55:42.954Z,2.40
2019-01-28T09:58:12.702Z,2.30
2019-01-28T10:00:45.490Z,2.30
2019-01-28T10:03:15.381Z,2.40
2019-01-28T10:05:46.107Z,2.50
2019-01-28T10:08:16.371Z,2.50
2019-01-28T10:10:47.035Z,2.50
2019-01-28T10:13:16.898Z,2.40
2019-01-28T10:15:46.822Z,2.40
2019-01-28T10:18:16.736Z,2.50
2019-01-28T10:20:47.287Z,2.40
2019-01-28T10:23:17.051Z,2.40
2019-01-28T10:25:47.242Z,2.40
2019-01-28T10:28:17.151Z,2.40
2019-01-28T10:30:47.675Z,2.40
2019-01-28T10:33:17.421Z,2.50
2019-01-28T10:35:47.416Z,2.50
2019-01-28T10:38:17.349Z,2.60
2019-01-28T10:40:49.120Z,2.70
2019-01-28T10:43:18.925Z,2.60
2019-01-28T10:45:48.532Z,2.50
2019-01-28T10:48:18.559Z,2.60
2019-01-28T10:50:48.234Z,2.60
2019-01-28T10:53:17.972Z,2.60
2019-01-28T10:55:47.858Z,2.50
2019-01-28T10:58:17.581Z,2.60
2019-01-28T11:00:48.132Z,2.60
2019-01-28T11:03:19.869Z,2.50
2019-01-28T11:05:49.713Z,2.50
2019-01-28T11:08:19.450Z,2.50
2019-01-28T11:10:49.275Z,2.60
2019-01-28T11:13:19.114Z,2.60
2019-01-28T11:15:48.806Z,2.60
2019-01-28T11:18:22.048Z,2.50
2019-01-28T11:20:52.011Z,2.50
2019-01-28T11:23:21.824Z,2.70
2019-01-28T11:25:52.594Z,2.70
2019-01-28T11:28:24.593Z,2.80
2019-01-28T11:30:57.108Z,2.90
2019-01-28T11:33:26.974Z,2.90
2019-01-28T11:36:04.722Z,3.20
2019-01-28T11:38:28.346Z,3.10
2019-01-28T11:40:58.123Z,3.20
2019-01-28T11:43:27.875Z,3.20
2019-01-28T11:45:59.885Z,3.10
2019-01-28T11:48:29.819Z,3.30
2019-01-28T11:50:59.754Z,3.40
2019-01-28T11:53:29.486Z,3.20
2019-01-28T11:55:59.230Z,3.20
2019-01-28T11:58:28.986Z,3.20
2019-01-28T12:01:05.048Z,3.20
2019-01-28T12:03:34.809Z,3.20
2019-01-28T12:06:05.126Z,3.00
2019-01-28T12:08:34.853Z,3.00
2019-01-28T12:11:05.521Z,3.20
2019-01-28T12:13:35.115Z,3.10
2019-01-28T12:16:05.238Z,3.10
2019-01-28T12:18:36.608Z,3.20
2019-01-28T12:21:08.551Z,3.20
2019-01-28T12:23:38.365Z,3.30
2019-01-28T12:26:08.121Z,3.30
2019-01-28T12:28:37.887Z,3.10
2019-01-28T12:31:07.636Z,3.00
2019-01-28T12:33:37.459Z,3.00
2019-01-28T12:36:07.298Z,3.00
2019-01-28T12:38:37.140Z,3.00
2019-01-28T12:41:06.793Z,3.10
2019-01-28T12:43:38.455Z,3.00
2019-01-28T12:46:08.214Z,3.10
2019-01-28T12:48:37.872Z,3.20
2019-01-28T12:51:07.690Z,3.30
2019-01-28T12:53:37.650Z,3.20
2019-01-28T12:56:07.346Z,3.00
2019-01-28T12:58:37.079Z,3.00
2019-01-28T13:01:06.831Z,3.10
2019-01-28T13:03:36.565Z,3.20
2019-01-28T13:06:06.311Z,3.10
2019-01-28T13:08:35.965Z,3.00
2019-01-28T13:11:05.832Z,3.00
2019-01-28T13:13:40.963Z,3.10
2019-01-28T13:16:08.562Z,3.00
2019-01-28T13:18:38.299Z,2.90
2019-01-28T13:21:08.159Z,2.90
2019-01-28T13:23:37.923Z,3.00
2019-01-28T13:26:07.743Z,3.10
2019-01-28T13:28:37.524Z,3.20
2019-01-28T13:31:07.362Z,3.20
2019-01-28T13:33:37.118Z,3.00
2019-01-28T13:36:09.360Z,3.00
2019-01-28T13:38:38.385Z,2.90
2019-01-28T13:41:08.115Z,2.90
2019-01-28T13:43:37.947Z,2.80
2019-01-28T13:46:07.740Z,2.80
2019-01-28T13:48:37.543Z,2.80
2019-01-28T13:51:07.412Z,2.80
2019-01-28T13:53:37.150Z,2.80
2019-01-28T13:56:06.907Z,2.70
2019-01-28T13:58:36.525Z,2.60
2019-01-28T14:01:06.360Z,2.60
2019-01-28T14:03:36.179Z,2.60
2019-01-28T14:06:06.093Z,2.60
2019-01-28T14:08:35.905Z,2.50
2019-01-28T14:11:05.647Z,2.50
2019-01-28T14:13:35.470Z,2.50
2019-01-28T14:16:05.265Z,2.40
2019-01-28T14:18:36.085Z,2.50
2019-01-28T14:21:05.875Z,2.60
2019-01-28T14:23:35.551Z,2.50
2019-01-28T14:26:05.398Z,2.50
2019-01-28T14:28:35.174Z,2.50
2019-01-28T14:31:04.916Z,2.40
2019-01-28T14:33:34.561Z,2.40
2019-01-28T14:36:04.749Z,2.40
2019-01-28T14:38:34.487Z,2.40
2019-01-28T14:41:04.253Z,2.40
2019-01-28T14:43:34.071Z,2.40
2019-01-28T14:46:03.890Z,2.30
2019-01-28T14:48:33.600Z,2.30
2019-01-28T14:51:03.390Z,2.30
2019-01-28T14:53:34.704Z,2.20
2019-01-28T14:56:04.864Z,2.20
2019-01-28T14:58:34.621Z,2.30
2019-01-28T15:01:04.909Z,2.30
2019-01-28T15:03:34.519Z,2.30
2019-01-28T15:06:04.574Z,2.30
2019-01-28T15:08:34.306Z,2.30
2019-01-28T15:11:04.236Z,2.20
2019-01-28T15:13:34.532Z,2.30
2019-01-28T15:16:09.070Z,2.20
2019-01-28T15:18:37.118Z,2.20
2019-01-28T15:21:07.827Z,2.10
2019-01-28T15:23:37.509Z,2.10
2019-01-28T15:26:07.171Z,2.10
2019-01-28T15:28:36.884Z,2.00
2019-01-28T15:31:08.236Z,2.00
2019-01-28T15:33:37.904Z,2.00
2019-01-28T15:36:07.638Z,1.90
2019-01-28T15:38:37.387Z,1.90
2019-01-28T15:41:07.107Z,1.80
2019-01-28T15:43:37.935Z,1.70
2019-01-28T15:46:08.673Z,1.70
2019-01-28T15:48:38.362Z,1.60
2019-01-28T15:51:08.020Z,1.60
2019-01-28T15:53:37.854Z,1.60
2019-01-28T15:56:07.616Z,1.60
2019-01-28T15:58:38.243Z,1.50
2019-01-28T16:01:08.116Z,1.50
2019-01-28T16:03:37.905Z,1.50
2019-01-28T16:06:07.771Z,1.40
2019-01-28T16:08:37.592Z,1.40
2019-01-28T16:11:08.314Z,1.40
2019-01-28T16:13:38.099Z,1.40
2019-01-28T16:16:07.963Z,1.40
2019-01-28T16:18:37.557Z,1.40
2019-01-28T16:21:07.467Z,1.30
2019-01-28T16:23:37.403Z,1.30
2019-01-28T16:26:07.155Z,1.30
2019-01-28T16:28:37.705Z,1.30
2019-01-28T16:31:07.462Z,1.20
2019-01-28T16:33:38.126Z,1.20
2019-01-28T16:36:08.136Z,1.20
2019-01-28T16:38:37.807Z,1.10
2019-01-28T16:41:07.625Z,1.10
2019-01-28T16:43:37.492Z,1.00
2019-01-28T16:46:07.224Z,1.00
2019-01-28T16:48:37.013Z,1.00
2019-01-28T16:51:07.580Z,0.90
2019-01-28T16:53:37.340Z,0.90
2019-01-28T16:56:07.136Z,0.80
2019-01-28T16:58:37.653Z,0.80
2019-01-28T17:01:07.487Z,0.80
2019-01-28T17:03:38.095Z,0.70
2019-01-28T17:06:07.818Z,0.70
2019-01-28T17:08:37.602Z,0.70
2019-01-28T17:11:07.405Z,0.70
2019-01-28T17:13:37.078Z,0.80
2019-01-28T17:16:06.814Z,0.80
2019-01-28T17:18:36.559Z,0.80
2019-01-28T17:21:06.989Z,0.80
2019-01-28T17:23:36.765Z,0.70
2019-01-28T17:26:06.492Z,0.70
2019-01-28T17:28:36.244Z,0.70
2019-01-28T17:31:06.984Z,0.70
2019-01-28T17:33:36.633Z,0.60
2019-01-28T17:36:06.529Z,0.60
2019-01-28T17:38:36.200Z,0.50
2019-01-28T17:41:06.199Z,0.50
2019-01-28T17:43:35.976Z,0.50
2019-01-28T17:46:05.787Z,0.50
2019-01-28T17:48:36.934Z,0.40
2019-01-28T17:51:06.693Z,0.40
2019-01-28T17:53:39.130Z,0.40
2019-01-28T17:56:08.822Z,0.40
2019-01-28T17:58:38.569Z,0.40
2019-01-28T18:01:09.321Z,0.40
2019-01-28T18:03:39.150Z,0.40
2019-01-28T18:06:09.224Z,0.40
2019-01-28T18:08:38.898Z,0.40
2019-01-28T18:11:08.582Z,0.40
2019-01-28T18:13:38.284Z,0.40
2019-01-28T18:16:08.023Z,0.40
2019-01-28T18:18:37.647Z,0.40
2019-01-28T18:21:07.415Z,0.40
2019-01-28T18:23:38.771Z,0.40
2019-01-28T18:26:08.704Z,0.50
2019-01-28T18:28:38.426Z,0.50
2019-01-28T18:31:08.163Z,0.50
2019-01-28T18:33:38.011Z,0.50
2019-01-28T18:36:07.744Z,0.50
2019-01-28T18:38:37.433Z,0.50
2019-01-28T18:41:07.415Z,0.50
2019-01-28T18:43:37.271Z,0.40
2019-01-28T18:46:07.027Z,0.40
2019-01-28T18:48:38.258Z,0.40
2019-01-28T18:51:07.993Z,0.40
2019-01-28T18:53:37.843Z,0.40
2019-01-28T18:56:07.787Z,0.40
2019-01-28T18:58:37.459Z,0.50
2019-01-28T19:01:07.323Z,0.40
2019-01-28T19:03:37.288Z,0.50
2019-01-28T19:06:11.993Z,0.50
2019-01-28T19:08:51.670Z,0.50
2019-01-28T19:11:26.036Z,0.50
2019-01-28T19:13:57.648Z,0.50
2019-01-28T19:16:31.589Z,0.60
2019-01-28T19:19:06.015Z,0.60
2019-01-28T19:21:40.479Z,0.50
2019-01-28T19:24:10.159Z,0.50
2019-01-28T19:26:39.946Z,0.50
2019-01-28T19:29:09.598Z,0.50
2019-01-28T19:31:40.080Z,0.50
2019-01-28T19:34:09.918Z,0.50
2019-01-28T19:36:39.715Z,0.50
2019-01-28T19:39:10.025Z,0.50
2019-01-28T19:41:39.783Z,0.50
2019-01-28T19:44:10.353Z,0.50
2019-01-28T19:46:40.239Z,0.50
2019-01-28T19:49:10.076Z,0.50
2019-01-28T19:51:39.858Z,0.50
2019-01-28T19:54:09.647Z,0.50
2019-01-28T19:56:39.361Z,0.60
2019-01-28T19:59:09.023Z,0.50
2019-01-28T20:01:38.863Z,0.60
2019-01-28T20:04:08.595Z,0.50
2019-01-28T20:06:38.416Z,0.60
2019-01-28T20:09:08.735Z,0.60
2019-01-28T20:11:38.628Z,0.60
2019-01-28T20:14:09.262Z,0.60
2019-01-28T20:16:38.992Z,0.60
2019-01-28T20:19:08.971Z,0.70
2019-01-28T20:21:38.733Z,0.70
2019-01-28T20:24:08.599Z,0.70
2019-01-28T20:26:38.270Z,0.70
2019-01-28T20:29:08.180Z,0.70
2019-01-28T20:31:38.955Z,0.70
2019-01-28T20:34:08.854Z,0.70
2019-01-28T20:36:38.602Z,0.70
2019-01-28T20:39:09.033Z,0.70
2019-01-28T20:41:39.161Z,0.80
2019-01-28T20:44:08.917Z,0.80
2019-01-28T20:46:38.661Z,0.70
2019-01-28T20:49:08.618Z,0.70
2019-01-28T20:51:38.428Z,0.70
2019-01-28T20:54:08.244Z,0.70
2019-01-28T20:56:39.913Z,0.70
2019-01-28T20:59:09.862Z,0.80
2019-01-28T21:01:39.706Z,0.80
2019-01-28T21:04:09.471Z,0.90
2019-01-28T21:06:39.214Z,0.80
2019-01-28T21:09:10.328Z,0.90
2019-01-28T21:11:40.143Z,0.90
2019-01-28T21:14:10.023Z,0.90
2019-01-28T21:16:40.023Z,0.90
2019-01-28T21:19:09.791Z,0.90
2019-01-28T21:21:42.039Z,0.90
2019-01-28T21:24:11.107Z,1.00
2019-01-28T21:26:40.800Z,1.00
2019-01-28T21:29:10.914Z,1.00
2019-01-28T21:31:40.604Z,1.00
2019-01-28T21:34:10.352Z,1.00
2019-01-28T21:36:41.675Z,0.90
2019-01-28T21:39:12.329Z,1.00
2019-01-28T21:41:42.175Z,1.00
2019-01-28T21:44:12.075Z,0.90
2019-01-28T21:46:41.759Z,0.90
2019-01-28T21:49:11.498Z,0.90
2019-01-28T21:51:41.232Z,0.90
2019-01-28T21:54:10.995Z,0.90
2019-01-28T21:56:40.669Z,0.90
2019-01-28T21:59:10.439Z,0.90
2019-01-28T22:01:40.517Z,0.90
2019-01-28T22:04:11.123Z,0.90
2019-01-28T22:06:40.916Z,0.90
2019-01-28T22:09:10.736Z,1.00
2019-01-28T22:11:40.488Z,1.00
2019-01-28T22:14:10.142Z,1.00
2019-01-28T22:16:39.940Z,1.00
2019-01-28T22:19:09.601Z,1.00
2019-01-28T22:21:39.349Z,1.00
2019-01-28T22:24:09.081Z,0.90
2019-01-28T22:26:38.790Z,0.90
2019-01-28T22:29:08.458Z,0.80
2019-01-28T22:31:39.054Z,0.80
2019-01-28T22:34:08.812Z,0.80
2019-01-28T22:36:38.517Z,0.80
2019-01-28T22:39:08.939Z,0.80
2019-01-28T22:41:38.947Z,0.70
2019-01-28T22:44:08.623Z,0.70
2019-01-28T22:46:38.378Z,0.80
2019-01-28T22:49:08.074Z,0.70
2019-01-28T22:51:37.812Z,0.70
2019-01-28T22:54:07.406Z,0.60
2019-01-28T22:56:37.189Z,0.60
2019-01-28T22:59:07.835Z,0.60
2019-01-28T23:01:37.783Z,0.60
2019-01-28T23:04:07.652Z,0.70
2019-01-28T23:06:37.536Z,0.70
2019-01-28T23:09:09.446Z,0.70
2019-01-28T23:11:40.184Z,0.70
2019-01-28T23:14:09.918Z,0.70
2019-01-28T23:16:39.678Z,0.70
2019-01-28T23:19:09.415Z,0.70
2019-01-28T23:21:39.195Z,0.70
2019-01-28T23:24:10.302Z,0.70
2019-01-28T23:26:39.988Z,0.70
2019-01-28T23:29:09.840Z,0.80
2019-01-28T23:31:39.621Z,0.70
2019-01-28T23:34:09.425Z,0.70
2019-01-28T23:36:39.099Z,0.70
2019-01-28T23:39:08.951Z,0.70
2019-01-28T23:41:38.715Z,0.80
2019-01-28T23:44:08.550Z,0.70
2019-01-28T23:46:38.314Z,0.70
2019-01-28T23:49:07.978Z,0.70
2019-01-28T23:51:37.766Z,0.70
2019-01-28T23:54:07.544Z,0.70
2019-01-28T23:56:37.241Z,0.70
2019-01-28T23:59:06.929Z,0.60
